createdAt,value
2023-03-07T00:00:47.689Z,29.90
2023-03-07T00:03:16.465Z,30.20
2023-03-07T00:05:45.819Z,28.10
2023-03-07T00:08:14.462Z,29.40
2023-03-07T00:10:43.878Z,27.00
2023-03-07T00:13:14.536Z,31.80
2023-03-07T00:15:42.621Z,28.80
2023-03-07T00:18:13.551Z,32.10
2023-03-07T00:20:42.225Z,24.70
2023-03-07T00:23:10.723Z,30.40
2023-03-07T00:25:40.939Z,27.00
2023-03-07T00:28:09.462Z,29.10
2023-03-07T00:30:38.352Z,27.70
2023-03-07T00:33:10.527Z,27.70
2023-03-07T00:35:38.800Z,26.80
2023-03-07T00:38:06.939Z,25.80
2023-03-07T00:40:38.377Z,29.70
2023-03-07T00:43:08.284Z,22.40
2023-03-07T00:45:36.397Z,30.40
2023-03-07T00:48:04.693Z,30.00
2023-03-07T00:50:34.210Z,24.60
2023-03-07T00:53:02.622Z,26.10
2023-03-07T00:55:31.766Z,28.00
2023-03-07T00:58:00.205Z,30.70
2023-03-07T01:00:28.517Z,28.00
2023-03-07T01:02:58.332Z,27.80
2023-03-07T01:05:28.638Z,27.10
2023-03-07T01:07:57.834Z,27.80
2023-03-07T01:10:28.322Z,30.90
2023-03-07T01:12:56.917Z,33.70
2023-03-07T01:15:25.939Z,31.40
2023-03-07T01:17:54.469Z,27.80
2023-03-07T01:20:22.848Z,28.50
2023-03-07T01:22:51.060Z,27.40
2023-03-07T01:25:19.316Z,31.30
2023-03-07T01:27:47.655Z,29.50
2023-03-07T01:30:16.351Z,29.80
2023-03-07T01:32:44.647Z,31.90
2023-03-07T01:35:13.639Z,35.20
2023-03-07T01:37:42.100Z,28.90
2023-03-07T01:40:12.152Z,29.80
2023-03-07T01:42:40.264Z,35.80
2023-03-07T01:45:34.387Z,28.70
2023-03-07T01:48:05.177Z,34.40
2023-03-07T01:50:34.658Z,26.50
2023-03-07T01:53:02.805Z,26.80
2023-03-07T01:55:35.060Z,32.10
2023-03-07T01:58:14.156Z,27.00
2023-03-07T02:00:42.514Z,34.80
2023-03-07T02:03:21.558Z,30.40
2023-03-07T02:06:04.915Z,28.60
2023-03-07T02:08:36.816Z,27.90
2023-03-07T02:11:05.840Z,29.60
2023-03-07T02:13:34.023Z,27.20
2023-03-07T02:16:04.466Z,28.20
2023-03-07T02:18:35.276Z,29.70
2023-03-07T02:21:25.807Z,25.10
2023-03-07T02:24:21.659Z,29.20
2023-03-07T02:26:51.347Z,25.80
2023-03-07T02:29:24.068Z,17.70
2023-03-07T02:31:52.680Z,30.50
2023-03-07T02:34:28.943Z,26.20
2023-03-07T02:37:19.461Z,35.50
2023-03-07T02:39:48.539Z,28.50
2023-03-07T02:42:26.421Z,29.00
2023-03-07T02:45:01.786Z,30.00
2023-03-07T02:47:32.421Z,28.90
2023-03-07T02:50:00.994Z,27.50
2023-03-07T02:52:30.286Z,27.90
2023-03-07T02:54:58.890Z,28.90
2023-03-07T03:00:07.147Z,32.20
2023-03-07T03:02:35.901Z,31.60
2023-03-07T03:05:10.261Z,35.30
2023-03-07T03:07:38.855Z,34.30
2023-03-07T03:10:07.815Z,29.30
2023-03-07T03:12:37.698Z,31.20
2023-03-07T03:15:08.072Z,30.80
2023-03-07T03:17:36.797Z,30.70
2023-03-07T03:20:12.909Z,27.40
2023-03-07T03:22:41.740Z,27.00
2023-03-07T03:25:11.573Z,28.60
2023-03-07T03:27:41.670Z,25.40
2023-03-07T03:30:12.790Z,30.60
2023-03-07T03:32:48.712Z,30.20
2023-03-07T03:35:17.630Z,34.10
2023-03-07T03:37:46.368Z,28.20
2023-03-07T03:40:17.786Z,26.30
2023-03-07T03:42:47.064Z,24.90
2023-03-07T03:45:16.673Z,28.60
2023-03-07T03:47:44.852Z,30.30
2023-03-07T03:50:16.313Z,29.90
2023-03-07T03:52:45.408Z,30.30
2023-03-07T03:55:14.125Z,33.20
2023-03-07T03:57:43.475Z,27.30
2023-03-07T04:00:16.071Z,26.20
2023-03-07T04:02:44.402Z,27.80
2023-03-07T04:05:13.707Z,29.20
2023-03-07T04:07:41.906Z,34.80
2023-03-07T04:10:11.007Z,24.00
2023-03-07T04:12:42.920Z,24.30
2023-03-07T04:15:12.933Z,27.80
2023-03-07T04:17:41.433Z,26.60
2023-03-07T04:20:17.406Z,22.90
2023-03-07T04:22:47.219Z,25.00
2023-03-07T04:25:15.820Z,26.60
2023-03-07T04:27:44.390Z,29.70
2023-03-07T04:30:12.933Z,23.70
2023-03-07T04:32:42.709Z,22.30
2023-03-07T04:35:11.035Z,25.20
2023-03-07T04:37:40.708Z,25.20
2023-03-07T04:40:10.192Z,21.70
2023-03-07T04:42:38.388Z,21.40
2023-03-07T04:45:07.430Z,26.80
2023-03-07T04:47:35.512Z,24.10
2023-03-07T04:50:03.859Z,29.60
2023-03-07T04:52:34.186Z,22.10
2023-03-07T04:55:02.833Z,27.30
2023-03-07T04:57:31.520Z,24.20
2023-03-07T05:00:00.216Z,20.90
2023-03-07T05:02:29.019Z,21.10
2023-03-07T05:04:57.533Z,18.60
2023-03-07T05:07:27.400Z,20.10
2023-03-07T05:09:56.660Z,24.40
2023-03-07T05:12:28.067Z,25.70
2023-03-07T05:14:56.824Z,21.50
2023-03-07T05:17:24.996Z,19.40
2023-03-07T05:19:56.293Z,25.50
2023-03-07T05:22:42.637Z,20.80
2023-03-07T05:25:11.626Z,20.30
2023-03-07T05:27:40.479Z,18.80
2023-03-07T05:30:09.440Z,21.80
2023-03-07T05:32:38.358Z,19.50
2023-03-07T05:35:08.905Z,21.80
2023-03-07T05:37:38.863Z,19.00
2023-03-07T05:40:11.140Z,18.50
2023-03-07T05:42:42.748Z,20.10
2023-03-07T05:45:11.535Z,18.10
2023-03-07T05:47:40.374Z,20.10
2023-03-07T05:50:12.312Z,20.00
2023-03-07T05:52:42.062Z,23.10
2023-03-07T05:55:11.475Z,23.10
2023-03-07T05:57:39.877Z,18.20
2023-03-07T06:00:08.989Z,22.70
2023-03-07T06:02:49.931Z,18.80
2023-03-07T06:05:18.843Z,23.70
2023-03-07T06:07:50.319Z,20.80
2023-03-07T06:10:22.371Z,19.60
2023-03-07T06:12:51.776Z,23.60
2023-03-07T06:15:32.144Z,23.20
2023-03-07T06:18:06.835Z,21.60
2023-03-07T06:20:43.106Z,23.80
2023-03-07T06:23:14.284Z,21.70
2023-03-07T06:25:43.714Z,25.60
2023-03-07T06:28:13.999Z,22.80
2023-03-07T06:30:43.646Z,20.60
2023-03-07T06:33:23.230Z,23.30
2023-03-07T06:35:57.140Z,20.10
2023-03-07T06:38:27.903Z,22.70
2023-03-07T06:40:59.204Z,22.50
2023-03-07T06:43:30.216Z,23.90
2023-03-07T06:46:05.750Z,23.60
2023-03-07T06:48:42.001Z,21.60
2023-03-07T06:51:20.046Z,19.90
2023-03-07T06:53:50.318Z,25.90
2023-03-07T06:56:21.594Z,22.60
2023-03-07T06:58:51.046Z,20.90
2023-03-07T07:01:33.981Z,20.40
2023-03-07T07:04:07.965Z,19.20
2023-03-07T07:06:38.786Z,23.40
2023-03-07T07:09:07.421Z,23.00
2023-03-07T07:11:45.878Z,24.80
2023-03-07T07:14:17.063Z,23.10
2023-03-07T07:16:47.797Z,23.50
2023-03-07T07:19:19.523Z,21.50
2023-03-07T07:21:53.311Z,22.00
2023-03-07T07:24:24.821Z,16.10
2023-03-07T07:27:08.311Z,21.00
2023-03-07T07:29:39.315Z,26.80
2023-03-07T07:32:12.132Z,18.20
2023-03-07T07:34:42.047Z,18.70
2023-03-07T07:37:11.927Z,26.10
2023-03-07T07:39:46.254Z,22.40
2023-03-07T07:42:14.465Z,21.60
2023-03-07T07:44:53.359Z,20.00
2023-03-07T07:47:25.002Z,21.80
2023-03-07T07:49:54.993Z,20.40
2023-03-07T07:52:35.904Z,21.70
2023-03-07T07:55:05.885Z,27.50
2023-03-07T07:57:34.241Z,23.90
2023-03-07T08:00:07.912Z,21.60
2023-03-07T08:02:40.891Z,32.10
2023-03-07T08:05:12.958Z,23.00
2023-03-07T08:07:42.808Z,22.20
2023-03-07T08:10:15.993Z,22.90
2023-03-07T08:12:52.620Z,22.80
2023-03-07T08:15:24.923Z,22.60
2023-03-07T08:17:54.836Z,21.30
2023-03-07T08:20:29.672Z,20.70
2023-03-07T08:22:59.938Z,20.60
2023-03-07T08:25:28.034Z,23.10
2023-03-07T08:28:00.123Z,33.40
2023-03-07T08:30:32.082Z,21.10
2023-03-07T08:33:03.780Z,23.00
2023-03-07T08:35:36.060Z,19.20
2023-03-07T08:38:05.121Z,22.40
2023-03-07T08:40:41.069Z,22.00
2023-03-07T08:43:10.707Z,22.60
2023-03-07T08:45:41.633Z,22.20
2023-03-07T08:48:10.778Z,20.10
2023-03-07T08:50:39.696Z,18.60
2023-03-07T08:53:08.779Z,22.80
2023-03-07T08:55:37.297Z,18.70
2023-03-07T08:58:14.053Z,22.80
2023-03-07T09:00:45.127Z,22.20
2023-03-07T09:03:14.069Z,21.80
2023-03-07T09:05:42.338Z,19.60
2023-03-07T09:08:12.213Z,28.10
2023-03-07T09:13:26.463Z,27.70
2023-03-07T09:15:54.682Z,23.20
2023-03-07T09:18:26.993Z,22.70
2023-03-07T09:21:03.479Z,22.30
2023-03-07T09:23:35.576Z,25.10
2023-03-07T09:26:08.827Z,24.60
2023-03-07T09:28:39.845Z,23.60
2023-03-07T09:31:11.612Z,19.40
2023-03-07T09:33:42.679Z,18.60
2023-03-07T09:36:15.749Z,19.40
2023-03-07T09:38:44.583Z,19.60
2023-03-07T09:41:25.085Z,22.80
2023-03-07T09:44:31.404Z,20.60
2023-03-07T09:47:24.064Z,18.70
2023-03-07T09:49:53.022Z,26.30
2023-03-07T09:52:29.196Z,22.20
2023-03-07T09:55:16.174Z,23.70
2023-03-07T09:58:08.119Z,24.30
2023-03-07T10:00:41.548Z,22.30
2023-03-07T10:03:49.650Z,22.80
2023-03-07T10:06:26.893Z,26.40
2023-03-07T10:08:55.403Z,22.40
2023-03-07T10:11:48.351Z,23.30
2023-03-07T10:14:17.601Z,22.70
2023-03-07T10:16:51.621Z,33.70
2023-03-07T10:19:44.674Z,27.10
2023-03-07T10:22:30.707Z,29.10
2023-03-07T10:24:59.252Z,21.10
2023-03-07T10:27:29.074Z,23.80
2023-03-07T10:29:59.773Z,22.50
2023-03-07T10:32:38.148Z,19.10
2023-03-07T10:35:17.680Z,18.20
2023-03-07T10:37:52.066Z,21.40
2023-03-07T10:40:39.990Z,20.70
2023-03-07T10:43:08.206Z,22.20
2023-03-07T10:45:41.917Z,14.80
2023-03-07T10:48:16.593Z,19.40
2023-03-07T10:51:01.021Z,18.70
2023-03-07T10:53:32.451Z,17.50
2023-03-07T10:56:14.668Z,20.30
2023-03-07T10:59:09.651Z,21.00
2023-03-07T11:01:39.299Z,26.00
2023-03-07T11:04:08.397Z,25.50
2023-03-07T11:06:40.968Z,21.20
2023-03-07T11:09:11.069Z,21.90
2023-03-07T11:11:41.404Z,22.00
2023-03-07T11:14:14.585Z,21.20
2023-03-07T11:16:53.873Z,22.20
2023-03-07T11:19:35.747Z,21.30
2023-03-07T11:22:33.739Z,20.80
2023-03-07T11:25:15.119Z,18.10
2023-03-07T11:27:46.680Z,18.50
2023-03-07T11:30:30.068Z,19.20
2023-03-07T11:33:19.964Z,20.80
2023-03-07T11:36:17.209Z,20.10
2023-03-07T11:39:04.323Z,20.50
2023-03-07T11:41:41.569Z,19.10
2023-03-07T11:44:24.495Z,21.00
2023-03-07T11:47:18.622Z,24.30
2023-03-07T11:50:12.991Z,23.30
2023-03-07T11:53:09.599Z,23.10
2023-03-07T11:55:46.768Z,30.00
2023-03-07T11:58:36.909Z,31.80
2023-03-07T12:01:25.699Z,21.60
2023-03-07T12:04:31.717Z,21.50
2023-03-07T12:07:10.833Z,22.00
2023-03-07T12:09:49.696Z,19.70
2023-03-07T12:12:28.453Z,22.60
2023-03-07T12:15:21.879Z,22.80
2023-03-07T12:17:53.782Z,22.00
2023-03-07T12:20:32.075Z,20.90
2023-03-07T12:23:14.289Z,21.70
2023-03-07T12:26:18.562Z,16.50
2023-03-07T12:29:19.702Z,16.00
2023-03-07T12:31:55.084Z,29.50
2023-03-07T12:34:29.697Z,20.70
2023-03-07T12:37:11.715Z,20.90
2023-03-07T12:40:48.482Z,21.50
2023-03-07T12:43:30.828Z,16.70
2023-03-07T12:46:17.588Z,16.10
2023-03-07T12:48:58.617Z,16.30
2023-03-07T12:51:59.633Z,20.10
2023-03-07T12:54:34.368Z,19.20
2023-03-07T12:57:20.196Z,18.30
2023-03-07T12:59:51.514Z,19.40
2023-03-07T13:02:30.641Z,15.00
2023-03-07T13:05:02.062Z,16.90
2023-03-07T13:07:35.908Z,34.00
2023-03-07T13:10:05.762Z,19.70
2023-03-07T13:12:36.127Z,22.00
2023-03-07T13:15:07.107Z,22.00
2023-03-07T13:17:38.276Z,21.30
2023-03-07T13:20:15.745Z,26.70
2023-03-07T13:22:45.864Z,28.20
2023-03-07T13:25:20.130Z,19.60
2023-03-07T13:27:48.572Z,23.80
2023-03-07T13:30:19.592Z,22.60
2023-03-07T13:32:50.984Z,21.70
2023-03-07T13:35:48.229Z,18.50
2023-03-07T13:38:58.409Z,19.90
2023-03-07T13:41:46.694Z,25.20
2023-03-07T13:44:38.819Z,15.70
2023-03-07T13:47:43.205Z,16.00
2023-03-07T13:50:36.615Z,15.50
2023-03-07T13:53:28.333Z,20.40
2023-03-07T13:56:20.214Z,21.80
2023-03-07T13:59:10.298Z,16.40
2023-03-07T14:01:56.283Z,19.20
2023-03-07T14:04:40.022Z,17.80
2023-03-07T14:07:28.999Z,19.30
2023-03-07T14:10:22.756Z,20.50
2023-03-07T14:15:58.564Z,17.20
2023-03-07T14:18:45.471Z,14.90
2023-03-07T14:21:20.933Z,16.00
2023-03-07T14:24:25.654Z,13.30
2023-03-07T14:26:56.974Z,14.70
2023-03-07T14:29:26.593Z,19.70
2023-03-07T14:31:57.146Z,16.10
2023-03-07T14:34:33.017Z,13.10
2023-03-07T14:37:04.779Z,14.30
2023-03-07T14:39:44.489Z,12.80
2023-03-07T14:42:21.362Z,13.50
2023-03-07T14:45:15.806Z,17.20
2023-03-07T14:48:16.320Z,14.40
2023-03-07T14:50:53.670Z,27.10
2023-03-07T14:53:26.403Z,16.50
2023-03-07T14:55:55.493Z,14.20
2023-03-07T14:58:33.659Z,14.10
2023-03-07T15:01:06.722Z,13.10
2023-03-07T15:03:35.531Z,16.30
2023-03-07T15:06:13.591Z,12.00
2023-03-07T15:08:41.816Z,15.60
2023-03-07T15:11:16.529Z,15.50
2023-03-07T15:13:51.235Z,15.30
2023-03-07T15:16:25.991Z,15.80
2023-03-07T15:19:19.406Z,38.00
2023-03-07T15:21:53.407Z,16.50
2023-03-07T15:24:35.679Z,17.70
2023-03-07T15:27:10.623Z,15.30
2023-03-07T15:29:47.416Z,14.30
2023-03-07T15:32:33.305Z,16.70
2023-03-07T15:35:09.137Z,16.70
2023-03-07T15:38:23.602Z,14.90
2023-03-07T15:40:51.818Z,15.20
2023-03-07T15:43:23.694Z,14.00
2023-03-07T15:46:00.175Z,15.10
2023-03-07T15:48:50.862Z,16.50
2023-03-07T15:51:20.691Z,16.40
2023-03-07T15:54:16.666Z,15.90
2023-03-07T15:56:45.893Z,15.50
2023-03-07T15:59:30.496Z,16.40
2023-03-07T16:01:58.716Z,16.30
2023-03-07T16:04:37.121Z,17.90
2023-03-07T16:07:16.335Z,15.10
2023-03-07T16:09:45.075Z,17.40
2023-03-07T16:12:14.792Z,17.20
2023-03-07T16:14:55.912Z,17.30
2023-03-07T16:17:36.503Z,16.80
2023-03-07T16:20:05.260Z,20.00
2023-03-07T16:22:34.087Z,18.40
2023-03-07T16:25:02.560Z,15.90
2023-03-07T16:27:31.386Z,17.00
2023-03-07T16:30:00.952Z,17.80
2023-03-07T16:32:29.823Z,19.70
2023-03-07T16:34:59.718Z,26.10
2023-03-07T16:37:28.743Z,18.90
2023-03-07T16:39:56.924Z,18.70
2023-03-07T16:42:25.690Z,25.50
2023-03-07T16:44:54.730Z,26.60
2023-03-07T16:47:23.064Z,26.40
2023-03-07T16:49:51.308Z,23.70
2023-03-07T16:52:19.489Z,24.90
2023-03-07T16:54:48.430Z,24.90
2023-03-07T16:57:18.007Z,19.80
2023-03-07T16:59:47.245Z,24.60
2023-03-07T17:02:25.669Z,23.70
2023-03-07T17:04:54.094Z,30.60
2023-03-07T17:07:27.851Z,25.10
2023-03-07T17:09:59.527Z,22.70
2023-03-07T17:12:29.835Z,22.80
2023-03-07T17:15:01.266Z,21.00
2023-03-07T17:17:33.528Z,22.70
2023-03-07T17:20:06.059Z,22.00
2023-03-07T17:25:11.417Z,21.10
2023-03-07T17:27:59.365Z,27.20
2023-03-07T17:30:34.343Z,24.90
2023-03-07T17:33:04.726Z,29.10
2023-03-07T17:35:36.212Z,32.60
2023-03-07T17:38:04.441Z,30.80
2023-03-07T17:40:41.576Z,36.60
2023-03-07T17:43:13.204Z,34.20
2023-03-07T17:45:51.307Z,36.80
2023-03-07T17:48:21.053Z,31.60
2023-03-07T17:50:49.437Z,36.60
2023-03-07T17:53:22.034Z,34.10
2023-03-07T17:55:50.220Z,38.10
2023-03-07T17:58:19.321Z,30.50
2023-03-07T18:00:47.622Z,27.60
2023-03-07T18:03:18.475Z,38.20
2023-03-07T18:05:49.505Z,29.50
2023-03-07T18:08:20.665Z,24.10
2023-03-07T18:10:48.904Z,28.70
2023-03-07T18:13:20.725Z,26.00
2023-03-07T18:15:49.111Z,26.50
2023-03-07T18:18:17.154Z,29.60
2023-03-07T18:20:46.232Z,29.30
2023-03-07T18:23:14.230Z,25.60
2023-03-07T18:25:42.570Z,30.20
2023-03-07T18:28:11.830Z,31.70
2023-03-07T18:30:42.690Z,26.20
2023-03-07T18:33:12.593Z,28.40
2023-03-07T18:35:41.998Z,33.40
2023-03-07T18:38:10.336Z,26.20
2023-03-07T18:40:40.489Z,25.50
2023-03-07T18:43:08.744Z,23.20
2023-03-07T18:45:37.167Z,32.40
2023-03-07T18:48:05.911Z,25.40
2023-03-07T18:50:34.343Z,32.30
2023-03-07T18:53:04.337Z,24.70
2023-03-07T18:55:34.773Z,32.40
2023-03-07T19:00:37.366Z,22.30
2023-03-07T19:03:08.780Z,28.10
2023-03-07T19:08:17.368Z,30.50
2023-03-07T19:10:45.743Z,32.20
2023-03-07T19:13:14.409Z,28.40
2023-03-07T19:15:45.017Z,29.10
2023-03-07T19:18:13.441Z,26.90
2023-03-07T19:20:41.490Z,25.80
2023-03-07T19:23:09.757Z,31.30
2023-03-07T19:25:38.530Z,26.20
2023-03-07T19:28:06.602Z,26.80
2023-03-07T19:30:37.170Z,29.40
2023-03-07T19:33:08.035Z,29.10
2023-03-07T19:35:38.247Z,28.40
2023-03-07T19:38:07.194Z,28.80
2023-03-07T19:40:35.333Z,31.10
2023-03-07T19:43:04.265Z,34.40
2023-03-07T19:45:32.617Z,28.70
2023-03-07T19:48:00.684Z,30.70
2023-03-07T19:50:28.866Z,32.90
2023-03-07T19:53:00.442Z,32.00
2023-03-07T19:55:30.925Z,35.10
2023-03-07T19:57:59.143Z,33.90
2023-03-07T20:00:29.707Z,39.50
2023-03-07T20:02:57.939Z,34.80
2023-03-07T20:05:29.379Z,32.60
2023-03-07T20:08:04.747Z,36.50
2023-03-07T20:10:37.730Z,37.10
2023-03-07T20:13:14.878Z,39.70
2023-03-07T20:15:51.804Z,36.30
2023-03-07T20:18:22.670Z,36.30
2023-03-07T20:20:53.917Z,34.90
2023-03-07T20:23:22.808Z,42.10
2023-03-07T20:25:51.385Z,35.30
2023-03-07T20:28:19.489Z,37.50
2023-03-07T20:30:51.030Z,34.10
2023-03-07T20:33:22.988Z,35.90
2023-03-07T20:36:00.975Z,32.90
2023-03-07T20:38:33.776Z,35.40
2023-03-07T20:41:06.747Z,33.70
2023-03-07T20:43:36.351Z,31.80
2023-03-07T20:46:05.812Z,33.30
2023-03-07T20:48:36.058Z,28.50
2023-03-07T20:51:16.200Z,31.90
2023-03-07T20:54:00.533Z,29.30
2023-03-07T20:56:30.394Z,29.60
2023-03-07T20:59:03.491Z,30.50
2023-03-07T21:01:32.670Z,31.60
2023-03-07T21:04:06.260Z,27.40
2023-03-07T21:06:40.836Z,31.40
2023-03-07T21:09:10.331Z,29.30
2023-03-07T21:11:45.248Z,28.00
2023-03-07T21:14:14.622Z,28.80
2023-03-07T21:16:44.895Z,28.40
2023-03-07T21:19:13.506Z,30.20
2023-03-07T21:21:41.598Z,33.30
2023-03-07T21:24:12.077Z,33.80
2023-03-07T21:26:43.319Z,29.80
2023-03-07T21:29:13.462Z,31.80
2023-03-07T21:31:41.618Z,31.00
2023-03-07T21:34:13.423Z,28.80
2023-03-07T21:36:41.509Z,33.40
2023-03-07T21:39:11.673Z,30.10
2023-03-07T21:41:41.215Z,32.10
2023-03-07T21:44:09.877Z,31.60
2023-03-07T21:46:38.617Z,35.40
2023-03-07T21:49:07.659Z,32.80
2023-03-07T21:51:37.517Z,32.90
2023-03-07T21:54:05.808Z,35.30
2023-03-07T21:56:35.182Z,33.90
2023-03-07T21:59:03.518Z,35.60
2023-03-07T22:01:37.544Z,34.10
2023-03-07T22:04:05.585Z,30.50
2023-03-07T22:06:33.807Z,30.70
2023-03-07T22:09:01.858Z,31.60
2023-03-07T22:11:29.969Z,33.50
2023-03-07T22:13:59.160Z,34.40
2023-03-07T22:16:29.650Z,39.80
2023-03-07T22:18:58.097Z,33.60
2023-03-07T22:21:26.848Z,33.60
2023-03-07T22:23:59.929Z,32.80
2023-03-07T22:26:29.070Z,31.40
2023-03-07T22:28:57.366Z,36.80
2023-03-07T22:31:25.787Z,34.20
2023-03-07T22:33:54.851Z,37.60
2023-03-07T22:36:25.074Z,33.80
2023-03-07T22:38:55.345Z,33.50
2023-03-07T22:41:23.998Z,36.70
2023-03-07T22:43:52.727Z,34.00
2023-03-07T22:46:21.152Z,33.90
2023-03-07T22:48:52.495Z,31.10
2023-03-07T22:51:22.993Z,34.90
2023-03-07T22:53:53.813Z,34.10
2023-03-07T22:56:24.402Z,31.70
2023-03-07T22:58:58.776Z,31.80
2023-03-07T23:01:28.577Z,29.70
2023-03-07T23:03:57.990Z,29.30
2023-03-07T23:06:31.174Z,29.00
2023-03-07T23:08:59.916Z,33.00
2023-03-07T23:11:33.092Z,27.40
2023-03-07T23:14:01.889Z,30.20
2023-03-07T23:16:31.796Z,29.30
2023-03-07T23:19:03.428Z,27.60
2023-03-07T23:21:32.317Z,28.70
2023-03-07T23:24:03.921Z,29.20
2023-03-07T23:26:36.922Z,27.70
2023-03-07T23:29:05.906Z,31.50
2023-03-07T23:31:36.647Z,26.00
2023-03-07T23:34:06.773Z,26.10
2023-03-07T23:36:35.414Z,27.00
2023-03-07T23:39:03.962Z,26.60
2023-03-07T23:41:32.031Z,27.90
2023-03-07T23:44:00.586Z,27.10
2023-03-07T23:46:29.269Z,30.80
2023-03-07T23:48:57.391Z,23.60
2023-03-07T23:51:25.639Z,26.10
2023-03-07T23:53:55.391Z,24.30
2023-03-07T23:56:23.979Z,25.30
2023-03-07T23:58:52.384Z,26.00
